CheckWX is a tool to help pilots better visualize weather data.  It is not intended as a substitute for an official pre-flight weather briefing.

12:23:24 UTC

KOKK METAR
Kokomo Municipal Airport
Kokomo, Indiana, USA
Current

27 mins ago

KOKK 271156Z AUTO 18004KT 10SM CLR 22/19 A3019 RMK AO2 SLP216 6//// 7//// T02170189 10250 20200 53002 PNO $
Observed
Jun-27 @ 11:56 UTC
Wind
  • 180° at 4 KTS
Visibility
10 SM
Flight Rules
VFR
Cloud Levels
  • Clear skies
Temperature
22°C / 72°F
Dewpoint
19°C / 66°F
Humidity
83%
Altimeter
30.19" Hg
Pressure
1022.32 hPa
Previous

1 hour ago

KOKK 271056Z AUTO 00000KT 10SM CLR 21/19 A3018 RMK AO2 SLP213 T02060194 PNO $
Observed
Jun-27 @ 10:56 UTC
Visibility
10 SM
Flight Rules
VFR
Cloud Levels
  • Clear skies
Temperature
21°C / 70°F
Dewpoint
19°C / 66°F
Humidity
88%
Altimeter
30.18" Hg
Pressure
1022.02 hPa
Previous

2 hours ago

KOKK 270956Z AUTO 16007KT 10SM CLR 20/19 A3016 RMK AO2 SLP204 T02000194 PNO $
Observed
Jun-27 @ 09:56 UTC
Wind
  • 160° at 7 KTS
Visibility
10 SM
Flight Rules
VFR
Cloud Levels
  • Clear skies
Temperature
20°C / 68°F
Dewpoint
19°C / 66°F
Humidity
94%
Altimeter
30.16" Hg
Pressure
1021.32 hPa